Time;durP1;ratioP1;P1;durP2;ratioP2;P2;SDS_P1;SDS_P2;PMS_P1;PMS_P2;Temp;Humidity;BMP_temperature;BMP_pressure;BME280_temperature;BME280_humidity;BME280_pressure;Samples;Min_cycle;Max_cycle;Signal;HPM_P1;HPM_P2
2022/12/21 00:01:14;;;;;;;1.70;1.30;;;14.40;99.90;;;;;;4963189;28;20188;-76
2022/12/21 00:03:46;;;;;;;1.45;1.20;;;14.40;99.90;;;;;;4960645;28;20199;-75
2022/12/21 00:06:19;;;;;;;1.40;1.15;;;14.40;99.90;;;;;;4977609;28;20199;-77
2022/12/21 00:08:50;;;;;;;1.65;1.35;;;14.30;99.90;;;;;;4972144;28;20179;-77
2022/12/21 00:11:16;;;;;;;2.35;1.77;;;14.30;99.90;;;;;;4971852;28;20176;-77
2022/12/21 00:13:42;;;;;;;1.75;1.35;;;14.30;99.90;;;;;;4975343;28;20176;-77
2022/12/21 00:16:14;;;;;;;1.80;1.33;;;14.20;99.90;;;;;;4970675;28;20205;-77
2022/12/21 00:18:40;;;;;;;1.88;1.30;;;14.20;99.90;;;;;;4972365;28;20189;-76
2022/12/21 00:21:07;;;;;;;2.38;1.30;;;14.20;99.90;;;;;;4965618;28;20237;-77
2022/12/21 00:23:36;;;;;;;1.92;1.50;;;14.10;99.90;;;;;;4977722;28;20427;-77
2022/12/21 00:26:07;;;;;;;1.75;1.35;;;14.10;99.90;;;;;;4976640;28;20211;-77
2022/12/21 00:28:36;;;;;;;2.20;1.25;;;14.10;99.90;;;;;;4976884;28;20245;-77
2022/12/21 00:31:18;;;;;;;1.30;1.10;;;14.00;99.90;;;;;;4972480;28;20187;-75
2022/12/21 00:33:47;;;;;;;1.20;1.10;;;14.00;99.90;;;;;;4972289;28;20199;-77
2022/12/21 00:36:18;;;;;;;1.70;1.25;;;13.90;99.90;;;;;;4976277;28;20211;-77
2022/12/21 00:38:46;;;;;;;1.52;1.27;;;13.90;99.90;;;;;;4975195;28;20222;-77
2022/12/21 00:41:14;;;;;;;2.05;1.30;;;13.80;99.90;;;;;;4989569;28;20171;-77
2022/12/21 00:43:43;;;;;;;2.20;1.40;;;13.80;99.90;;;;;;4976966;28;20190;-77
2022/12/21 00:46:21;;;;;;;1.90;1.38;;;13.70;99.90;;;;;;4965219;28;20230;-77
2022/12/21 00:48:47;;;;;;;1.40;1.20;;;13.70;99.90;;;;;;4972573;28;20262;-77
2022/12/21 00:51:19;;;;;;;1.98;1.30;;;13.60;99.90;;;;;;4987299;28;20270;-77
2022/12/21 00:53:45;;;;;;;1.30;1.10;;;13.60;99.90;;;;;;4973639;28;20430;-77
2022/12/21 00:56:11;;;;;;;1.75;1.20;;;13.60;99.90;;;;;;4978517;28;20183;-78
2022/12/21 00:58:38;;;;;;;1.50;1.30;;;13.60;99.90;;;;;;4974695;28;20186;-77
2022/12/21 01:01:09;;;;;;;1.80;1.58;;;13.50;99.90;;;;;;4968292;28;20176;-78
2022/12/21 01:03:37;;;;;;;1.92;1.45;;;13.50;99.90;;;;;;4973575;28;20225;-78
2022/12/21 01:06:06;;;;;;;1.92;1.40;;;13.50;99.90;;;;;;4977104;28;20228;-78
2022/12/21 01:08:32;;;;;;;1.52;1.40;;;13.50;99.90;;;;;;4976170;28;20176;-78
2022/12/21 01:11:02;;;;;;;1.98;1.30;;;13.40;99.90;;;;;;4971268;28;20186;-78
2022/12/21 01:13:29;;;;;;;1.77;1.40;;;13.50;99.90;;;;;;4971546;28;20204;-77
2022/12/21 01:15:56;;;;;;;1.50;1.30;;;13.40;99.90;;;;;;4966828;28;20183;-75
2022/12/21 01:18:22;;;;;;;1.35;1.25;;;13.40;99.90;;;;;;4971552;28;20268;-78
2022/12/21 01:20:51;;;;;;;2.15;1.50;;;13.40;99.90;;;;;;4976627;28;20191;-78
2022/12/21 01:23:20;;;;;;;1.50;1.40;;;13.30;99.90;;;;;;4967835;28;20184;-77
2022/12/21 01:25:46;;;;;;;1.33;1.20;;;13.30;99.90;;;;;;4991006;28;20211;-78
2022/12/21 01:28:15;;;;;;;1.55;1.40;;;13.30;99.90;;;;;;4977419;28;20198;-77
2022/12/21 01:30:41;;;;;;;2.20;1.50;;;13.30;99.90;;;;;;4981676;28;20183;-77
2022/12/21 01:33:16;;;;;;;2.05;1.35;;;13.30;99.90;;;;;;4995775;28;20198;-78
2022/12/21 01:35:43;;;;;;;2.17;1.40;;;13.20;99.90;;;;;;4997644;28;20179;-78
2022/12/21 01:38:11;;;;;;;1.88;1.50;;;13.20;99.90;;;;;;4981995;28;20195;-75
2022/12/21 01:40:38;;;;;;;1.77;1.38;;;13.30;99.90;;;;;;4972736;28;20208;-78
2022/12/21 01:43:18;;;;;;;2.00;1.70;;;13.20;99.90;;;;;;4978186;28;20183;-78
2022/12/21 01:45:50;;;;;;;3.17;1.50;;;13.20;99.90;;;;;;4963591;28;20218;-78
2022/12/21 01:48:19;;;;;;;1.73;1.30;;;13.20;99.90;;;;;;4981250;28;20230;-78
2022/12/21 01:50:56;;;;;;;2.25;1.58;;;13.10;99.90;;;;;;4980274;28;20179;-77
2022/12/21 01:53:28;;;;;;;2.13;1.60;;;13.20;99.90;;;;;;4979529;28;20179;-77
2022/12/21 01:55:57;;;;;;;1.70;1.50;;;13.00;99.90;;;;;;4969181;28;20208;-77
2022/12/21 01:58:30;;;;;;;2.35;1.60;;;13.10;99.90;;;;;;4971747;28;20214;-78
2022/12/21 02:00:58;;;;;;;2.53;1.30;;;13.10;99.90;;;;;;4974878;28;20183;-79
2022/12/21 02:03:30;;;;;;;3.15;1.63;;;13.10;99.90;;;;;;4980844;28;20192;-78
2022/12/21 02:06:30;;;;;;;1.88;1.52;;;13.10;99.90;;;;;;4982418;28;20198;-78
2022/12/21 02:09:01;;;;;;;1.45;1.33;;;13.10;99.90;;;;;;4955630;28;20202;-77
2022/12/21 02:11:27;;;;;;;2.40;1.60;;;13.00;99.90;;;;;;4977316;28;20176;-78
2022/12/21 02:13:53;;;;;;;1.63;1.38;;;13.10;99.90;;;;;;4971913;28;20263;-77
2022/12/21 02:16:26;;;;;;;3.20;1.48;;;13.10;99.90;;;;;;4975676;28;20233;-78
2022/12/21 02:19:08;;;;;;;1.55;1.30;;;13.00;99.90;;;;;;4984251;28;20178;-77
2022/12/21 02:21:52;;;;;;;1.55;1.45;;;13.00;99.90;;;;;;4994880;28;20172;-78
2022/12/21 02:24:50;;;;;;;1.70;1.40;;;13.00;99.90;;;;;;4974502;28;20235;-78
2022/12/21 02:27:35;;;;;;;1.70;1.40;;;13.00;99.90;;;;;;4973611;28;20175;-78
2022/12/21 02:30:18;;;;;;;1.75;1.30;;;13.00;99.90;;;;;;4984303;28;20199;-75
2022/12/21 02:32:59;;;;;;;1.90;1.40;;;13.00;99.90;;;;;;4978618;28;20176;-74
2022/12/21 02:35:35;;;;;;;2.05;1.33;;;13.00;99.90;;;;;;4960614;28;20186;-75
2022/12/21 02:38:19;;;;;;;1.80;1.40;;;13.00;99.90;;;;;;4974965;28;20171;-78
2022/12/21 02:40:56;;;;;;;1.20;1.10;;;12.90;99.90;;;;;;4996376;28;20226;-77
2022/12/21 02:44:14;;;;;;;2.38;1.30;;;12.90;99.90;;;;;;4972555;28;20279;-78
2022/12/21 02:46:43;;;;;;;1.30;1.13;;;13.00;99.90;;;;;;4918673;28;20215;-78
2022/12/21 02:49:22;;;;;;;1.52;1.42;;;13.00;99.90;;;;;;4978463;28;20199;-76
2022/12/21 02:52:17;;;;;;;1.83;1.40;;;12.90;99.90;;;;;;4982351;28;20270;-78
2022/12/21 02:54:45;;;;;;;1.80;1.33;;;12.90;99.90;;;;;;4979772;28;20190;-77
2022/12/21 02:57:13;;;;;;;1.58;1.40;;;12.90;99.90;;;;;;4974494;28;20179;-78
2022/12/21 02:59:46;;;;;;;2.03;1.45;;;12.90;99.90;;;;;;4977430;28;20183;-78
2022/12/21 03:02:14;;;;;;;1.70;1.40;;;12.90;99.90;;;;;;4976802;28;20358;-78
2022/12/21 03:05:02;;;;;;;1.55;1.30;;;12.80;99.90;;;;;;4988415;28;20210;-78
2022/12/21 03:07:51;;;;;;;1.95;1.40;;;12.90;99.90;;;;;;4966576;28;20223;-77
2022/12/21 03:10:38;;;;;;;1.30;1.20;;;12.80;99.90;;;;;;4971191;28;20183;-76
2022/12/21 03:13:25;;;;;;;2.30;1.52;;;12.80;99.90;;;;;;4964228;28;20176;-77
2022/12/21 03:16:14;;;;;;;2.15;1.50;;;12.80;99.90;;;;;;4978989;28;20207;-79
2022/12/21 03:18:43;;;;;;;2.03;1.55;;;12.80;99.90;;;;;;4978030;28;20257;-77
2022/12/21 03:21:27;;;;;;;1.67;1.30;;;12.80;99.90;;;;;;4975462;28;20488;-77
2022/12/21 03:24:02;;;;;;;1.85;1.48;;;12.80;99.90;;;;;;4977243;28;20206;-77
2022/12/21 03:26:41;;;;;;;1.83;1.40;;;12.80;99.90;;;;;;4977205;28;20290;-77
2022/12/21 03:29:14;;;;;;;2.47;1.58;;;12.80;99.90;;;;;;4970609;28;20186;-77
2022/12/21 03:31:46;;;;;;;2.03;1.48;;;12.70;99.90;;;;;;4980412;28;20175;-79
2022/12/21 03:34:25;;;;;;;1.77;1.50;;;12.70;99.90;;;;;;4978725;28;20402;-78
2022/12/21 03:37:02;;;;;;;2.10;1.52;;;12.70;99.90;;;;;;4969117;28;20298;-78
2022/12/21 03:39:30;;;;;;;1.45;1.35;;;12.60;99.90;;;;;;4974803;28;20179;-78
2022/12/21 03:42:17;;;;;;;2.28;1.58;;;12.60;99.90;;;;;;4972306;28;20171;-78
2022/12/21 03:45:04;;;;;;;1.85;1.70;;;12.60;99.90;;;;;;4967327;28;20179;-78
2022/12/21 03:47:46;;;;;;;1.88;1.40;;;12.50;99.90;;;;;;4968957;28;20334;-78
2022/12/21 03:50:19;;;;;;;2.08;1.50;;;12.50;99.90;;;;;;4973504;28;20261;-78
2022/12/21 03:53:06;;;;;;;1.60;1.35;;;12.40;99.90;;;;;;4985033;28;20200;-78
2022/12/21 03:55:35;;;;;;;1.83;1.48;;;12.50;99.90;;;;;;4977137;28;20167;-77
2022/12/21 03:58:02;;;;;;;2.13;1.50;;;12.40;99.90;;;;;;4980720;28;20179;-78
2022/12/21 04:00:35;;;;;;;2.65;1.50;;;12.40;99.90;;;;;;4976160;28;20196;-76
2022/12/21 04:03:06;;;;;;;2.00;1.60;;;12.40;99.90;;;;;;4977230;28;20215;-77
2022/12/21 04:05:50;;;;;;;1.75;1.60;;;12.40;99.90;;;;;;4977346;28;20203;-78
2022/12/21 04:08:18;;;;;;;2.00;1.70;;;12.30;99.90;;;;;;4959396;28;20172;-78
2022/12/21 04:10:47;;;;;;;2.60;1.63;;;12.30;99.90;;;;;;4970345;28;20246;-78
2022/12/21 04:13:13;;;;;;;2.53;1.70;;;12.40;99.90;;;;;;4970317;28;20210;-78
2022/12/21 04:21:07;;;;;;;1.90;1.70;;;12.30;99.90;;;;;;4993189;28;20186;-77
2022/12/21 04:29:06;;;;;;;1.80;1.52;;;12.30;99.90;;;;;;4994442;28;20321;-78
2022/12/21 04:31:32;;;;;;;2.40;1.95;;;12.20;99.90;;;;;;4977739;28;20233;-78
2022/12/21 04:33:57;;;;;;;2.00;1.75;;;12.20;99.90;;;;;;4975909;28;20343;-77
2022/12/21 04:39:14;;;;;;;4.57;2.00;;;12.20;99.90;;;;;;4991218;28;20222;-78
2022/12/21 04:41:40;;;;;;;1.55;1.42;;;12.20;99.90;;;;;;4974902;28;20171;-77
2022/12/21 04:44:07;;;;;;;1.83;1.65;;;12.20;99.90;;;;;;4979144;28;20552;-77
2022/12/21 04:46:33;;;;;;;2.53;1.63;;;12.20;99.90;;;;;;4976402;28;20238;-78
2022/12/21 04:48:59;;;;;;;1.70;1.50;;;12.20;99.90;;;;;;4974064;28;20199;-77
2022/12/21 04:51:25;;;;;;;2.35;1.83;;;12.20;99.90;;;;;;4978604;28;20202;-76
2022/12/21 04:53:54;;;;;;;1.98;1.77;;;12.30;99.90;;;;;;4989813;28;20204;-77
2022/12/21 04:56:22;;;;;;;1.90;1.70;;;12.20;99.90;;;;;;4970108;28;20180;-77
2022/12/21 04:58:50;;;;;;;1.65;1.50;;;12.20;99.90;;;;;;4962387;28;20206;-78
2022/12/21 05:01:20;;;;;;;1.92;1.60;;;12.20;99.90;;;;;;4975197;28;20183;-77
2022/12/21 05:03:47;;;;;;;2.13;1.80;;;12.20;99.90;;;;;;4977412;28;20194;-78
2022/12/21 05:06:15;;;;;;;1.95;1.70;;;12.30;99.90;;;;;;4973267;28;20208;-77
2022/12/21 05:08:44;;;;;;;2.92;1.67;;;12.20;99.90;;;;;;4982216;28;20206;-77
2022/12/21 05:11:12;;;;;;;2.95;1.90;;;12.30;99.90;;;;;;4981239;28;20179;-77
2022/12/21 05:13:41;;;;;;;2.10;1.77;;;12.30;99.90;;;;;;4977330;28;20290;-77
2022/12/21 05:16:11;;;;;;;2.40;1.90;;;12.10;99.90;;;;;;4981599;28;20187;-78
2022/12/21 05:18:40;;;;;;;3.38;2.10;;;12.20;99.90;;;;;;4975511;28;20191;-77
2022/12/21 05:21:05;;;;;;;2.33;1.70;;;12.20;99.90;;;;;;4978793;28;20234;-77
2022/12/21 05:23:31;;;;;;;4.88;2.42;;;12.20;99.90;;;;;;4995987;28;20497;-77
2022/12/21 05:25:59;;;;;;;2.65;1.73;;;12.20;99.90;;;;;;4975714;28;20192;-77
2022/12/21 05:28:24;;;;;;;2.55;2.20;;;12.20;99.90;;;;;;4982129;28;20226;-77
2022/12/21 05:30:50;;;;;;;2.30;1.90;;;12.30;99.90;;;;;;4985003;28;20176;-78
2022/12/21 05:33:16;;;;;;;2.58;1.55;;;12.20;99.90;;;;;;4980208;28;20179;-76
2022/12/21 05:35:44;;;;;;;2.90;1.67;;;12.10;99.90;;;;;;4968564;28;20223;-78
2022/12/21 05:38:10;;;;;;;2.17;1.55;;;12.10;99.90;;;;;;4980294;28;20186;-78
2022/12/21 05:40:35;;;;;;;2.63;1.48;;;12.20;99.90;;;;;;4983971;28;20424;-78
2022/12/21 05:43:02;;;;;;;1.70;1.60;;;12.20;99.90;;;;;;4980573;28;20211;-78
2022/12/21 05:45:30;;;;;;;2.03;1.55;;;12.20;99.90;;;;;;4977029;28;20277;-78
2022/12/21 05:47:56;;;;;;;2.03;1.50;;;12.20;99.90;;;;;;4975424;28;20204;-78
2022/12/21 05:50:25;;;;;;;1.75;1.60;;;12.10;99.90;;;;;;4973278;28;20195;-79
2022/12/21 05:52:51;;;;;;;1.67;1.48;;;12.20;99.90;;;;;;4980813;28;20266;-77
2022/12/21 05:55:23;;;;;;;1.95;1.60;;;12.20;99.90;;;;;;4980888;28;20221;-77
2022/12/21 05:57:49;;;;;;;2.05;1.40;;;12.20;99.90;;;;;;4983810;28;20183;-77
2022/12/21 06:00:15;;;;;;;1.65;1.45;;;12.10;99.90;;;;;;4972725;28;20486;-78
2022/12/21 06:02:43;;;;;;;1.70;1.25;;;12.10;99.90;;;;;;4979503;28;20399;-77
2022/12/21 06:05:11;;;;;;;1.65;1.40;;;12.10;99.90;;;;;;4974696;28;20195;-76
2022/12/21 06:07:39;;;;;;;3.65;1.70;;;12.10;99.90;;;;;;4980616;28;20523;-77
2022/12/21 06:10:08;;;;;;;2.00;1.42;;;12.10;99.90;;;;;;4965096;28;20180;-78
2022/12/21 06:12:36;;;;;;;2.58;2.15;;;12.10;99.90;;;;;;4972124;28;20241;-75
2022/12/21 06:15:03;;;;;;;2.80;2.22;;;12.10;99.90;;;;;;4952172;28;20208;-76
2022/12/21 06:17:30;;;;;;;2.50;2.00;;;12.10;99.90;;;;;;4972377;28;20265;-75
2022/12/21 06:19:56;;;;;;;2.05;1.52;;;12.10;99.90;;;;;;4975086;28;20306;-76
2022/12/21 06:22:21;;;;;;;2.00;1.65;;;12.10;99.90;;;;;;4965227;28;20216;-76
2022/12/21 06:24:47;;;;;;;1.75;1.60;;;12.10;99.90;;;;;;4982915;28;20179;-78
2022/12/21 06:27:15;;;;;;;1.75;1.40;;;12.10;99.90;;;;;;4979496;28;20199;-74
2022/12/21 06:29:40;;;;;;;1.45;1.23;;;12.20;99.90;;;;;;4993579;28;20220;-77
2022/12/21 06:32:08;;;;;;;1.38;1.25;;;12.10;99.90;;;;;;4978966;28;20179;-76
2022/12/21 06:34:34;;;;;;;2.05;1.30;;;12.10;99.90;;;;;;4980019;28;20204;-76
2022/12/21 06:36:59;;;;;;;2.17;1.10;;;12.10;99.90;;;;;;4971826;28;20184;-76
2022/12/21 06:39:25;;;;;;;1.33;1.08;;;12.10;99.90;;;;;;4977362;28;20448;-76
2022/12/21 06:41:51;;;;;;;1.50;1.05;;;12.20;99.90;;;;;;4979394;28;20179;-75
2022/12/21 06:44:16;;;;;;;1.52;1.20;;;12.20;99.90;;;;;;4978263;28;20253;-80
2022/12/21 06:46:44;;;;;;;2.42;1.80;;;12.20;99.90;;;;;;4977369;28;20307;-79
2022/12/21 06:49:12;;;;;;;1.60;1.13;;;12.20;99.90;;;;;;4962792;28;20176;-75
2022/12/21 06:51:39;;;;;;;1.98;1.45;;;12.20;99.90;;;;;;4978830;28;20175;-75
2022/12/21 06:54:06;;;;;;;2.45;1.80;;;12.30;99.90;;;;;;4975852;28;20195;-76
2022/12/21 06:56:34;;;;;;;3.13;1.55;;;12.30;99.90;;;;;;4977097;28;20176;-74
2022/12/21 06:58:59;;;;;;;1.92;1.55;;;12.30;99.90;;;;;;4978919;28;20202;-75
2022/12/21 07:01:33;;;;;;;1.38;1.20;;;12.30;99.90;;;;;;4963813;28;20259;-81
2022/12/21 07:04:01;;;;;;;2.35;1.40;;;12.40;99.90;;;;;;4966387;28;20304;-80
2022/12/21 07:06:31;;;;;;;2.25;1.30;;;12.40;99.90;;;;;;4979146;28;20226;-81
2022/12/21 07:09:00;;;;;;;2.45;1.80;;;12.40;99.90;;;;;;4972970;28;20196;-79
2022/12/21 07:11:28;;;;;;;2.22;1.73;;;12.40;99.90;;;;;;4972899;28;20176;-80
2022/12/21 07:13:54;;;;;;;2.40;1.98;;;12.40;99.90;;;;;;4979892;28;20195;-81
2022/12/21 07:16:21;;;;;;;2.95;2.10;;;12.40;99.90;;;;;;4979246;28;20179;-80
2022/12/21 07:18:47;;;;;;;3.13;2.10;;;12.40;99.90;;;;;;4978973;28;20206;-79
2022/12/21 07:21:18;;;;;;;3.05;2.00;;;12.40;99.90;;;;;;4970708;28;20180;-81
2022/12/21 07:23:47;;;;;;;2.20;1.90;;;12.40;99.90;;;;;;4977312;28;20321;-80
2022/12/21 07:26:17;;;;;;;2.00;1.70;;;12.30;99.90;;;;;;4976500;28;20199;-82
2022/12/21 07:28:43;;;;;;;2.45;1.70;;;12.30;99.90;;;;;;4976201;28;20195;-80
2022/12/21 07:31:11;;;;;;;4.68;1.92;;;12.30;99.90;;;;;;4979077;28;20246;-81
2022/12/21 07:33:40;;;;;;;2.42;1.98;;;12.30;99.90;;;;;;4979617;28;20206;-81
2022/12/21 07:36:09;;;;;;;2.97;2.05;;;12.20;99.90;;;;;;4978021;28;20394;-82
2022/12/21 07:38:37;;;;;;;2.33;1.80;;;12.20;99.90;;;;;;4974707;28;20206;-79
2022/12/21 07:41:04;;;;;;;2.90;2.50;;;12.20;99.90;;;;;;4978401;28;20209;-81
2022/12/21 07:43:33;;;;;;;2.13;1.90;;;12.20;99.90;;;;;;4966357;28;20207;-81
2022/12/21 07:45:59;;;;;;;2.97;2.10;;;12.10;99.90;;;;;;4963868;28;20195;-81
2022/12/21 07:48:27;;;;;;;2.03;1.70;;;12.10;99.90;;;;;;4972291;28;20322;-82
2022/12/21 07:50:53;;;;;;;2.63;1.90;;;12.10;99.90;;;;;;4973412;28;20187;-81
2022/12/21 07:53:18;;;;;;;3.10;2.28;;;12.10;99.90;;;;;;4967837;28;20179;-81
2022/12/21 07:55:44;;;;;;;2.60;1.90;;;12.10;99.90;;;;;;4978289;28;20292;-82
2022/12/21 07:58:10;;;;;;;2.85;1.95;;;12.10;99.90;;;;;;4975029;28;20171;-81
2022/12/21 08:00:37;;;;;;;4.40;3.28;;;12.10;99.90;;;;;;4967741;28;20175;-82
2022/12/21 08:03:05;;;;;;;2.83;2.28;;;12.10;99.90;;;;;;4969899;28;20242;-81
2022/12/21 08:05:32;;;;;;;3.42;2.60;;;12.10;99.90;;;;;;4973249;28;20235;-82
2022/12/21 08:07:58;;;;;;;3.75;2.40;;;12.10;99.90;;;;;;4964389;28;20263;-82
2022/12/21 08:10:24;;;;;;;3.45;2.25;;;12.10;99.90;;;;;;4975531;28;20164;-83
2022/12/21 08:12:52;;;;;;;2.80;2.10;;;12.10;99.90;;;;;;4970312;28;20172;-81
2022/12/21 08:15:21;;;;;;;3.30;2.42;;;12.20;99.90;;;;;;4977604;28;20203;-82
2022/12/21 08:17:47;;;;;;;3.25;2.20;;;12.10;99.90;;;;;;4972987;28;20213;-81
2022/12/21 08:20:13;;;;;;;2.97;2.40;;;12.20;99.90;;;;;;4966496;28;20191;-82
2022/12/21 08:22:39;;;;;;;2.70;2.08;;;12.20;99.90;;;;;;4969901;28;20203;-80
2022/12/21 08:25:05;;;;;;;4.22;2.40;;;12.20;99.90;;;;;;4978169;28;20209;-83
2022/12/21 08:27:31;;;;;;;2.63;2.30;;;12.20;99.90;;;;;;4978177;28;20206;-81
2022/12/21 08:29:59;;;;;;;3.63;2.53;;;12.20;99.90;;;;;;4977516;28;20195;-82
2022/12/21 08:32:24;;;;;;;3.28;2.80;;;12.30;99.90;;;;;;4978120;28;20178;-82
2022/12/21 08:34:50;;;;;;;3.78;2.83;;;12.30;99.90;;;;;;4970060;28;20168;-81
2022/12/21 08:37:18;;;;;;;4.07;2.90;;;12.30;99.90;;;;;;4970066;28;20164;-82
2022/12/21 08:39:46;;;;;;;3.00;2.50;;;12.30;99.90;;;;;;4977701;28;20189;-79
2022/12/21 08:42:14;;;;;;;3.83;3.10;;;12.30;99.90;;;;;;4968114;28;20427;-81
2022/12/21 08:44:39;;;;;;;3.00;2.42;;;12.30;99.90;;;;;;4978193;28;20183;-81
2022/12/21 08:47:07;;;;;;;2.88;2.42;;;12.30;99.90;;;;;;4977641;28;20278;-82
2022/12/21 08:49:35;;;;;;;6.05;2.90;;;12.30;99.90;;;;;;4966724;28;20266;-81
2022/12/21 08:52:03;;;;;;;3.63;2.75;;;12.40;99.90;;;;;;4962776;28;20211;-82
2022/12/21 08:54:29;;;;;;;3.40;2.33;;;12.40;99.90;;;;;;4979756;28;20238;-82
2022/12/21 08:56:57;;;;;;;3.33;2.50;;;12.40;99.90;;;;;;4980975;28;20222;-81
2022/12/21 08:59:23;;;;;;;4.10;2.60;;;12.40;99.90;;;;;;4981735;28;20183;-81
2022/12/21 09:01:55;;;;;;;4.28;3.00;;;12.50;99.90;;;;;;4972559;28;20192;-82
2022/12/21 09:04:21;;;;;;;3.35;2.70;;;12.50;99.90;;;;;;4975899;28;20242;-81
2022/12/21 09:06:49;;;;;;;4.47;3.03;;;12.50;99.90;;;;;;4976568;28;20195;-81
2022/12/21 09:09:14;;;;;;;3.97;2.85;;;12.60;99.90;;;;;;4978820;28;20172;-83
2022/12/21 09:11:44;;;;;;;3.15;2.30;;;12.60;99.90;;;;;;4979362;28;20254;-81
2022/12/21 09:14:10;;;;;;;3.85;2.33;;;12.60;99.90;;;;;;4980610;28;20428;-82
2022/12/21 09:16:36;;;;;;;3.05;2.42;;;12.60;99.90;;;;;;4981192;28;20260;-82
2022/12/21 09:19:01;;;;;;;2.40;2.03;;;12.60;99.90;;;;;;4971111;28;20183;-79
2022/12/21 09:21:27;;;;;;;2.80;2.50;;;12.60;99.90;;;;;;4974893;28;20234;-81
2022/12/21 09:23:53;;;;;;;2.92;2.45;;;12.70;99.90;;;;;;4977212;28;20222;-81
2022/12/21 09:26:19;;;;;;;3.67;2.22;;;12.70;99.90;;;;;;4977389;28;20261;-82
2022/12/21 09:28:45;;;;;;;3.33;2.38;;;12.80;99.90;;;;;;4968379;28;20176;-82
2022/12/21 09:31:18;;;;;;;3.55;2.28;;;12.90;99.90;;;;;;4980956;28;20254;-82
2022/12/21 09:33:46;;;;;;;2.47;2.13;;;13.00;99.90;;;;;;4970556;28;20344;-81
2022/12/21 09:36:15;;;;;;;4.47;2.40;;;13.20;99.90;;;;;;4972625;28;20199;-82
2022/12/21 09:38:43;;;;;;;4.22;2.55;;;13.30;99.90;;;;;;4973944;28;20193;-82
2022/12/21 09:41:19;;;;;;;2.63;2.05;;;13.40;99.90;;;;;;4980555;28;20249;-83
2022/12/21 09:44:18;;;;;;;2.67;2.17;;;13.50;99.90;;;;;;4972398;28;20270;-83
2022/12/21 09:46:45;;;;;;;3.47;2.22;;;13.50;99.90;;;;;;4975950;28;20226;-82
2022/12/21 09:49:24;;;;;;;4.45;2.30;;;13.50;99.90;;;;;;4987160;28;20186;-80
2022/12/21 09:51:56;;;;;;;2.80;2.30;;;13.50;99.90;;;;;;4979000;28;20214;-82
2022/12/21 09:54:36;;;;;;;3.25;2.50;;;13.60;99.90;;;;;;4967136;28;20321;-82
2022/12/21 09:57:03;;;;;;;3.67;2.60;;;13.50;99.90;;;;;;4965691;28;20191;-83
2022/12/21 09:59:30;;;;;;;4.10;2.60;;;13.40;99.90;;;;;;4967664;28;20190;-82
2022/12/21 10:02:24;;;;;;;3.03;2.17;;;13.40;99.90;;;;;;4976835;28;20202;-81
2022/12/21 10:05:27;;;;;;;3.50;2.50;;;13.50;99.90;;;;;;4977342;28;20210;-80
2022/12/21 10:08:41;;;;;;;2.85;2.08;;;13.50;99.90;;;;;;4974734;28;20180;-82
2022/12/21 10:11:09;;;;;;;2.95;2.00;;;13.50;99.90;;;;;;4966674;28;20274;-81
2022/12/21 10:13:57;;;;;;;2.70;2.38;;;13.60;99.90;;;;;;4975880;28;20175;-83
2022/12/21 10:16:28;;;;;;;2.53;2.08;;;13.60;99.90;;;;;;4966102;28;20184;-82
2022/12/21 10:19:20;;;;;;;2.65;2.20;;;13.60;99.90;;;;;;4971949;28;20191;-81
2022/12/21 10:22:17;;;;;;;2.67;2.10;;;13.60;99.90;;;;;;4976874;28;20195;-81
2022/12/21 10:24:58;;;;;;;2.10;1.70;;;13.70;99.90;;;;;;4972593;28;20175;-82
2022/12/21 10:27:30;;;;;;;1.55;1.40;;;13.60;99.90;;;;;;4970871;28;20179;-82
2022/12/21 10:29:58;;;;;;;1.70;1.58;;;13.70;99.90;;;;;;4973693;28;20317;-82
2022/12/21 10:32:31;;;;;;;2.00;1.80;;;13.70;99.90;;;;;;4975088;28;20219;-82
2022/12/21 10:35:17;;;;;;;2.47;1.88;;;13.60;99.90;;;;;;4975265;28;20235;-82
2022/12/21 10:37:52;;;;;;;2.67;2.25;;;13.60;99.90;;;;;;4978804;28;20334;-81
2022/12/21 10:40:20;;;;;;;3.67;2.70;;;13.50;99.90;;;;;;4968850;28;20297;-82
2022/12/21 10:42:51;;;;;;;3.38;3.08;;;13.50;99.90;;;;;;4977556;28;20190;-79
2022/12/21 10:45:20;;;;;;;4.13;3.28;;;13.40;99.90;;;;;;4987765;28;20218;-82
2022/12/21 10:47:46;;;;;;;3.53;3.22;;;13.30;99.90;;;;;;4979303;28;21346;-80
2022/12/21 10:50:17;;;;;;;5.25;3.63;;;13.30;99.90;;;;;;4969776;28;20172;-82
2022/12/21 10:52:44;;;;;;;4.22;3.65;;;13.20;99.90;;;;;;4972564;28;20305;-83
2022/12/21 10:55:19;;;;;;;4.85;3.60;;;13.20;99.90;;;;;;4979207;28;20179;-81
2022/12/21 10:57:53;;;;;;;3.92;3.10;;;13.10;99.90;;;;;;4973388;28;20204;-81
2022/12/21 11:00:27;;;;;;;4.00;3.47;;;13.10;99.90;;;;;;4974930;28;20229;-84
2022/12/21 11:03:00;;;;;;;5.53;3.65;;;13.10;99.90;;;;;;4972829;28;20219;-84
2022/12/21 11:05:35;;;;;;;4.88;3.80;;;13.00;99.90;;;;;;4966750;28;20207;-83
2022/12/21 11:08:31;;;;;;;4.40;3.90;;;13.00;99.90;;;;;;4975239;28;20186;-83
2022/12/21 11:11:00;;;;;;;4.22;3.22;;;13.00;99.90;;;;;;4966037;28;20254;-83
2022/12/21 11:13:31;;;;;;;5.35;3.78;;;12.90;99.90;;;;;;4978791;28;20202;-82
2022/12/21 11:16:10;;;;;;;4.88;3.97;;;12.90;99.90;;;;;;4979085;28;20172;-82
2022/12/21 11:18:48;;;;;;;6.22;4.18;;;12.90;99.90;;;;;;4964029;28;20179;-81
2022/12/21 11:21:25;;;;;;;5.10;4.20;;;13.00;99.90;;;;;;4977978;28;20203;-81
2022/12/21 11:23:57;;;;;;;4.88;3.88;;;13.10;99.90;;;;;;4976324;28;20203;-80
2022/12/21 11:26:30;;;;;;;5.00;3.88;;;13.30;99.90;;;;;;4978273;28;20215;-83
2022/12/21 11:29:06;;;;;;;5.93;4.72;;;13.50;99.90;;;;;;4978865;28;20195;-83
2022/12/21 11:31:33;;;;;;;5.60;4.53;;;13.70;99.90;;;;;;4975807;28;20262;-84
2022/12/21 11:33:59;;;;;;;5.78;4.60;;;13.90;99.90;;;;;;4978526;28;20219;-80
2022/12/21 11:36:24;;;;;;;4.38;3.97;;;14.00;99.90;;;;;;4975202;28;20180;-82
2022/12/21 11:38:50;;;;;;;4.95;4.00;;;14.10;99.90;;;;;;4974876;28;20176;-79
2022/12/21 11:41:26;;;;;;;4.85;3.72;;;14.10;99.90;;;;;;4976184;28;20229;-84
2022/12/21 11:43:53;;;;;;;3.85;3.33;;;14.00;99.90;;;;;;4973494;28;20187;-82
2022/12/21 11:46:57;;;;;;;4.45;3.60;;;13.90;99.90;;;;;;4977867;28;20231;-81
2022/12/21 11:49:42;;;;;;;4.25;3.30;;;13.80;99.90;;;;;;4900573;29;20277;-84
2022/12/21 11:52:19;;;;;;;3.80;3.42;;;13.70;99.90;;;;;;4962651;28;20224;-83
2022/12/21 11:54:59;;;;;;;3.67;3.08;;;13.60;99.90;;;;;;4970097;28;20207;-82
2022/12/21 11:57:49;;;;;;;3.38;2.95;;;13.60;99.90;;;;;;4972379;28;20189;-81
2022/12/21 12:00:20;;;;;;;2.35;2.15;;;13.50;99.90;;;;;;4966433;28;20172;-83
2022/12/21 12:03:06;;;;;;;2.55;2.28;;;13.60;99.90;;;;;;4976512;28;20219;-82
2022/12/21 12:05:54;;;;;;;2.50;2.00;;;13.50;99.90;;;;;;4970333;28;20207;-83
2022/12/21 12:08:30;;;;;;;3.00;2.08;;;13.60;99.90;;;;;;4977626;28;20210;-81
2022/12/21 12:11:13;;;;;;;2.75;2.30;;;13.60;99.90;;;;;;4967430;28;20186;-83
2022/12/21 12:14:06;;;;;;;3.33;2.20;;;13.50;99.90;;;;;;4960797;28;20180;-83
2022/12/21 12:16:41;;;;;;;2.38;1.98;;;13.50;99.90;;;;;;4977332;28;20186;-81
2022/12/21 12:19:19;;;;;;;3.72;2.30;;;13.50;99.90;;;;;;4975350;28;20178;-82
2022/12/21 12:21:50;;;;;;;2.22;2.03;;;13.60;99.90;;;;;;4968195;28;20223;-83
2022/12/21 12:24:46;;;;;;;2.35;1.85;;;13.60;99.90;;;;;;4967954;28;20186;-83
2022/12/21 12:27:14;;;;;;;2.35;2.08;;;13.60;99.90;;;;;;4963370;28;20495;-82
2022/12/21 12:30:05;;;;;;;2.13;1.92;;;13.70;99.90;;;;;;4971951;28;20171;-83
2022/12/21 12:33:09;;;;;;;2.22;1.67;;;13.70;99.90;;;;;;4976246;28;20171;-82
2022/12/21 12:35:40;;;;;;;2.15;1.92;;;13.70;99.90;;;;;;4898083;29;20210;-79
2022/12/21 12:38:09;;;;;;;2.22;1.83;;;13.70;99.90;;;;;;4962124;28;20195;-81
2022/12/21 12:40:42;;;;;;;2.33;1.92;;;13.70;99.90;;;;;;4979296;28;20215;-83
2022/12/21 12:43:19;;;;;;;2.08;1.88;;;13.70;99.90;;;;;;4970945;28;20214;-83
2022/12/21 12:46:10;;;;;;;2.10;1.83;;;13.80;99.90;;;;;;4969460;28;20199;-83
2022/12/21 12:48:54;;;;;;;2.78;1.85;;;13.80;99.90;;;;;;4991405;28;20187;-82
2022/12/21 12:52:27;;;;;;;2.25;1.90;;;13.90;99.90;;;;;;4968764;28;20167;-80
2022/12/21 12:55:24;;;;;;;2.42;1.77;;;13.90;99.90;;;;;;4872432;28;20319;-81
2022/12/21 12:58:06;;;;;;;3.75;1.80;;;14.00;99.90;;;;;;4951532;28;20172;-83
2022/12/21 13:01:00;;;;;;;2.08;1.60;;;14.10;99.90;;;;;;4972334;28;20179;-82
2022/12/21 13:03:49;;;;;;;2.00;1.50;;;14.10;99.90;;;;;;4980702;28;20219;-83
2022/12/21 13:06:34;;;;;;;1.98;1.77;;;14.10;99.90;;;;;;4976183;28;20215;-82
2022/12/21 13:09:05;;;;;;;2.30;1.63;;;14.10;99.90;;;;;;4961003;28;20192;-82
2022/12/21 13:11:45;;;;;;;1.90;1.67;;;14.10;99.90;;;;;;4971614;28;20210;-82
2022/12/21 13:14:14;;;;;;;2.58;1.52;;;14.00;99.90;;;;;;4980033;28;20156;-83
2022/12/21 13:16:42;;;;;;;3.35;1.80;;;14.00;99.90;;;;;;4966906;28;20210;-83
2022/12/21 13:19:14;;;;;;;2.17;1.60;;;13.90;99.90;;;;;;4976455;28;20180;-82
2022/12/21 13:21:42;;;;;;;1.42;1.33;;;13.90;99.90;;;;;;4971692;28;20168;-83
2022/12/21 13:24:14;;;;;;;2.22;1.50;;;13.90;99.90;;;;;;4968279;28;20207;-81
2022/12/21 13:26:43;;;;;;;1.30;1.13;;;13.80;99.90;;;;;;4977549;28;20199;-82
2022/12/21 13:29:17;;;;;;;3.35;1.50;;;13.80;99.90;;;;;;4977522;28;20189;-81